ADDS METAR Data INFO
IDs: Format: Raw Decoded Include TAF

Data at: 0501 UTC 25 May 2018

KSEP 250455Z AUTO 00000KT 10SM CLR 24/17 A3006 RMK AO2 T02420171
KSEP 250435Z AUTO 14004KT 10SM CLR 25/17 A3006 RMK AO2 T02480170
KSEP 250415Z AUTO 13005KT 10SM CLR 25/17 A3006 RMK AO2 T02500172
KSEP 250355Z AUTO 13005KT 10SM CLR 25/18 A3005 RMK AO2 T02520175
KSEP 250335Z AUTO 13006KT 10SM CLR 26/18 A3005 RMK AO2 T02550177
KSEP 250315Z AUTO 13006KT 10SM CLR 26/18 A3004 RMK AO2 T02550180
KSEP 250255Z AUTO 13006KT 10SM CLR 26/18 A3004 RMK AO2 T02570181
KSEP 250235Z AUTO 12005KT 10SM CLR 26/18 A3004 RMK AO2 T02580184
KSEP 250215Z AUTO 11005KT 10SM CLR 26/19 A3003 RMK AO2 T02610186
KSEP 250155Z AUTO 12005KT 10SM CLR 26/19 A3002 RMK AO2 T02630189
KSEP 250135Z AUTO 13005KT 10SM CLR 27/19 A3002 RMK AO2 T02700190
KSEP 250115Z AUTO 13004KT 10SM CLR 28/19 A3002 RMK AO2 T02780185
KSEP 250055Z AUTO 13006KT 10SM CLR 29/18 A3001 RMK AO2 T02860181
KSEP 250035Z AUTO 14005KT 10SM CLR 30/18 A3001 RMK AO2 T02960178
KSEP 250015Z AUTO 14006KT 10SM CLR 30/17 A3001 RMK AO2 T02960171
KSEP 242355Z AUTO 14007KT 10SM CLR 31/17 A3001 RMK AO2 T03080172 10315 20282
KSEP 242335Z AUTO 13009KT 10SM CLR 31/17 A3002 RMK AO2 T03100168
KSEP 242315Z AUTO 16006KT 10SM CLR 31/17 A3002 RMK AO2 T03100170
KSEP 242255Z AUTO 14005KT 10SM CLR 31/17 A3003 RMK AO2 T03130171
KSEP 242235Z AUTO 13008KT 10SM CLR 31/17 A3003 RMK AO2 T03120173
KSEP 242215Z AUTO 14006KT 10SM CLR 31/18 A3004 RMK AO2 T03110177
KSEP 242155Z AUTO 15006KT 10SM CLR 31/17 A3004 RMK AO2 T03110173
KSEP 242135Z AUTO 12005KT 10SM CLR 31/18 A3005 RMK AO2 T03110180
KSEP 242115Z AUTO 17008KT 10SM CLR 31/17 A3006 RMK AO2 T03100173
KSEP 242055Z AUTO 15007KT 110V180 10SM CLR 31/18 A3006 RMK AO2 T03060178
KSEP 242035Z AUTO 15006KT 10SM SCT042 31/18 A3007 RMK AO2 T03060180
KSEP 242015Z AUTO 20004KT 10SM SCT042 31/18 A3008 RMK AO2 T03070182
KSEP 241955Z AUTO 18007KT 10SM SCT042 31/19 A3009 RMK AO2 T03050190
KSEP 241935Z AUTO 16006KT 10SM SCT040 30/19 A3009 RMK AO2 T02990188
KSEP 241915Z AUTO 19006KT 10SM SCT038 30/19 A3010 RMK AO2 T03000187
KSEP 241855Z AUTO 12005KT 10SM SCT034 30/19 A3010 RMK AO2 T02960192
KSEP 241835Z AUTO 14008KT 10SM SCT034 30/19 A3011 RMK AO2 T02960194
KSEP 241815Z AUTO 19006KT 10SM BKN034 30/20 A3012 RMK AO2 T02980200
KSEP 241755Z AUTO 17004KT 10SM SCT030 28/19 A3012 RMK AO2 T02840193 10285 20195
KSEP 241735Z AUTO 15005KT 10SM CLR 28/20 A3012 RMK AO2 T02800195
KSEP 241715Z AUTO 17005KT 10SM SCT022 27/20 A3013 RMK AO2 T02710196
KSEP 241655Z AUTO 19006KT 10SM SCT022 26/20 A3014 RMK AO2 T02580195
KSEP 241635Z AUTO 17005KT 10SM BKN018 26/20 A3014 RMK AO2 T02560198
KSEP 241615Z AUTO 16008KT 10SM OVC016 25/20 A3014 RMK AO2 T02520197
KSEP 241555Z AUTO 20005KT 10SM OVC012 24/20 A3014 RMK AO2 T02400195
KSEP 241535Z AUTO 21004KT 10SM OVC010 23/20 A3014 RMK AO2 T02330196
KSEP 241515Z AUTO 22005KT 10SM OVC008 23/20 A3014 RMK AO2 T02280198
KSEP 241455Z AUTO 18006KT 10SM OVC006 22/20 A3014 RMK AO2 T02200197
KSEP 241435Z AUTO 20005KT 10SM OVC006 22/20 A3014 RMK AO2 T02170197
KSEP 241355Z AUTO 21006KT 7SM OVC004 21/20 A3013 RMK AO2 T02140195
KSEP 241335Z AUTO 18006KT 10SM BKN004 22/20 A3012 RMK AO2 T02150197
KSEP 241315Z AUTO 19004KT 10SM SCT004 22/20 A3012 RMK AO2 T02150199
KSEP 241255Z AUTO 00000KT 7SM CLR 21/20 A3012 RMK AO2 T02100196
KSEP 241235Z AUTO 00000KT 5SM CLR 20/19 A3011 RMK AO2 T02040192
KSEP 241215Z AUTO 16003KT 5SM CLR 20/19 A3010 RMK AO2 T02000187
KSEP 241155Z AUTO 00000KT 5SM CLR 20/18 A3010 RMK AO2 T01950182 10216 20192
KSEP 241135Z AUTO 00000KT 5SM CLR 19/18 A3009 RMK AO2 T01930181
KSEP 241115Z AUTO 00000KT 5SM CLR 19/18 A3008 RMK AO2 T01930180
KSEP 241055Z AUTO 00000KT 7SM CLR 20/18 A3008 RMK AO2 T01950181
KSEP 241035Z AUTO 00000KT 5SM CLR 19/18 A3008 RMK AO2 T01920179
KSEP 241015Z AUTO 00000KT 7SM CLR 20/18 A3009 RMK AO2 T01950180
KSEP 240955Z AUTO 00000KT 7SM CLR 20/18 A3008 RMK AO2 T01960180
KSEP 240935Z AUTO 00000KT 10SM CLR 20/18 A3008 RMK AO2 T01990182
KSEP 240915Z AUTO 00000KT 10SM CLR 20/18 A3008 RMK AO2 T01980180
KSEP 240855Z AUTO 17004KT 10SM CLR 20/18 A3008 RMK AO2 T02000181
KSEP 240835Z AUTO 17004KT 10SM CLR 20/18 A3009 RMK AO2 T02020181
KSEP 240815Z AUTO 17004KT 10SM CLR 21/18 A3009 RMK AO2 T02050182
KSEP 240755Z AUTO 16003KT 10SM CLR 21/18 A3009 RMK AO2 T02050182
KSEP 240735Z AUTO 17003KT 10SM CLR 21/18 A3009 RMK AO2 T02070183
KSEP 240715Z AUTO 16004KT 10SM CLR 21/18 A3010 RMK AO2 T02080183
KSEP 240655Z AUTO 16004KT 10SM CLR 21/18 A3010 RMK AO2 T02100184
KSEP 240635Z AUTO 15005KT 10SM CLR 21/19 A3011 RMK AO2 T02120186
KSEP 240615Z AUTO 00000KT 10SM CLR 21/19 A3012 RMK AO2 T02120185
KSEP 240555Z AUTO 00000KT 10SM CLR 22/19 A3011 RMK AO2 T02160186 10301 20216 403120192
KSEP 240535Z AUTO 00000KT 10SM CLR 22/19 A3011 RMK AO2 T02190188
KSEP 240515Z AUTO 00000KT 10SM CLR 22/19 A3012 RMK AO2 T02210190
KSEP 240455Z AUTO 18003KT 10SM CLR 23/19 A3011 RMK AO2 T02250189
KSEP 240435Z AUTO 00000KT 10SM CLR 23/19 A3010 RMK AO2 T02270187
KSEP 240415Z AUTO 15004KT 10SM CLR 23/19 A3009 RMK AO2 T02330187
KSEP 240355Z AUTO 14005KT 10SM CLR 24/19 A3009 RMK AO2 T02370187
KSEP 240335Z AUTO 14005KT 10SM CLR 24/19 A3008 RMK AO2 T02400185
KSEP 240315Z AUTO 13006KT 10SM CLR 25/18 A3007 RMK AO2 T02470183
KSEP 240255Z AUTO 14006KT 10SM CLR 25/18 A3007 RMK AO2 T02530180
KSEP 240235Z AUTO 13004KT 10SM CLR 26/18 A3006 RMK AO2 T02560176
KSEP 240155Z AUTO 11005KT 10SM CLR 26/18 A3003 RMK AO2 T02550175
KSEP 240135Z AUTO 11005KT 10SM CLR 27/17 A3002 RMK AO2 T02690171
KSEP 240115Z AUTO 12005KT 10SM CLR 28/17 A3002 RMK AO2 T02760167
KSEP 240055Z AUTO 12007KT 10SM CLR 29/16 A3001 RMK AO2 T02870163
KSEP 240035Z AUTO 13007KT 10SM CLR 30/16 A3000 RMK AO2 T02950162
KSEP 240015Z AUTO 14008KT 10SM CLR 30/16 A3000 RMK AO2 T02980159
KSEP 232355Z AUTO 14008KT 10SM CLR 30/16 A3001 RMK AO2 T03020162 10312 20286
KSEP 232335Z AUTO 14008G14KT 10SM CLR 30/16 A3001 RMK AO2 T03010161
KSEP 232315Z AUTO 14009KT 10SM CLR 31/17 A3002 RMK AO2 T03060165
KSEP 232255Z AUTO 15009G14KT 10SM SCT055 31/16 A3002 RMK AO2 T03060160
KSEP 232235Z AUTO 13007KT 10SM CLR 31/17 A3003 RMK AO2 T03070167
KSEP 232215Z AUTO 14008KT 120V180 10SM CLR 31/17 A3003 RMK AO2 T03080168
KSEP 232155Z AUTO 15007KT 10SM SCT050 SCT065 30/17 A3003 RMK AO2 T03020171
KSEP 232135Z AUTO 15008KT 10SM CLR 31/16 A3004 RMK AO2 T03110160
KSEP 232115Z AUTO 12006KT 10SM SCT050 31/17 A3005 RMK AO2 T03100169
KSEP 232055Z AUTO 14007KT 120V190 10SM SCT050 31/17 A3005 RMK AO2 T03080168
KSEP 232035Z AUTO 16006KT 10SM SCT047 30/18 A3006 RMK AO2 T03000175
KSEP 232015Z AUTO 12008KT 10SM SCT047 SCT060 30/18 A3006 RMK AO2 T03030175
KSEP 231955Z AUTO 13008KT 10SM SCT045 BKN050 BKN060 29/18 A3007 RMK AO2 T02910176
KSEP 231935Z AUTO 14006KT 10SM SCT045 SCT055 30/18 A3007 RMK AO2 T02980178
KSEP 231915Z AUTO 15010KT 10SM CLR 30/17 A3008 RMK AO2 T02990173
KSEP 231855Z AUTO 19009KT 10SM SCT041 30/18 A3009 RMK AO2 T02960177
KSEP 231835Z AUTO 16008G14KT 10SM SCT039 30/18 A3009 RMK AO2 T02970181
KSEP 231815Z AUTO 14007KT 10SM SCT037 SCT043 29/18 A3010 RMK AO2 T02870182
KSEP 231755Z AUTO 16007KT 10SM SCT037 29/18 A3010 RMK AO2 T02890179 10291 20195
KSEP 231735Z AUTO 18009KT 10SM SCT035 29/18 A3011 RMK AO2 T02880182
KSEP 231715Z AUTO 15005KT 10SM CLR 28/18 A3011 RMK AO2 T02820182